Time;durP1;ratioP1;P1;durP2;ratioP2;P2;SDS_P1;SDS_P2;PMS_P1;PMS_P2;Temp;Humidity;BMP_temperature;BMP_pressure;BME280_temperature;BME280_humidity;BME280_pressure;Samples;Min_cycle;Max_cycle;Signal;HPM_P1;HPM_P2
2021/01/27 00:04:35;;;;;;;9.10;7.47;;;;;;;;;;4939806;28;20817;31
2021/01/27 00:07:02;;;;;;;10.77;7.72;;;;;;;;;;4163588;34;20552;-59
2021/01/27 00:09:27;;;;;;;9.30;7.57;;;;;;;;;;4164666;34;20527;-60
2021/01/27 00:11:53;;;;;;;10.93;7.97;;;;;;;;;;4178240;34;20122;-60
2021/01/27 00:14:19;;;;;;;8.90;7.22;;;;;;;;;;4178204;34;20130;-59
2021/01/27 00:16:45;;;;;;;8.45;7.60;;;;;;;;;;4178268;34;20121;-60
2021/01/27 00:19:11;;;;;;;12.23;8.40;;;;;;;;;;4165554;34;20118;-59
2021/01/27 00:21:37;;;;;;;9.70;7.80;;;;;;;;;;4178112;34;20178;-59
2021/01/27 00:24:03;;;;;;;12.73;8.10;;;;;;;;;;4178473;34;20094;-60
2021/01/27 00:26:28;;;;;;;9.00;8.00;;;;;;;;;;4178004;34;20517;-60
2021/01/27 00:28:54;;;;;;;12.10;8.60;;;;;;;;;;4176307;34;20561;-58
2021/01/27 00:31:20;;;;;;;10.18;8.45;;;;;;;;;;4176098;34;20566;-58
2021/01/27 00:33:46;;;;;;;14.13;8.95;;;;;;;;;;4176422;34;20142;-59
2021/01/27 00:36:12;;;;;;;10.80;9.70;;;;;;;;;;4176407;34;20193;-59
2021/01/27 00:38:38;;;;;;;17.48;9.93;;;;;;;;;;4175539;34;20122;-59
2021/01/27 00:41:04;;;;;;;11.32;9.70;;;;;;;;;;4177775;34;20151;-60
2021/01/27 00:43:29;;;;;;;11.82;9.70;;;;;;;;;;4178013;34;20114;-59
2021/01/27 00:45:55;;;;;;;13.13;9.90;;;;;;;;;;4178320;34;20110;-60
2021/01/27 00:48:21;;;;;;;13.85;10.25;;;;;;;;;;4177913;34;20218;-60
2021/01/27 00:50:47;;;;;;;15.65;9.57;;;;;;;;;;4178020;34;20214;-60
2021/01/27 00:53:13;;;;;;;14.77;9.93;;;;;;;;;;4178024;34;20099;-60
2021/01/27 00:55:39;;;;;;;12.60;9.65;;;;;;;;;;4177925;34;20507;-60
2021/01/27 00:58:05;;;;;;;14.98;9.68;;;;;;;;;;4165281;34;20111;-60
2021/01/27 01:00:32;;;;;;;17.25;9.90;;;;;;;;;;4178109;34;20098;-59
2021/01/27 01:02:59;;;;;;;13.95;9.90;;;;;;;;;;4178158;34;20110;-59
2021/01/27 01:05:30;;;;;;;16.75;10.00;;;;;;;;;;4182372;34;20128;-60
2021/01/27 01:07:56;;;;;;;17.37;10.82;;;;;;;;;;4191669;34;20109;-59
2021/01/27 01:10:34;;;;;;;17.73;10.80;;;;;;;;;;4190897;34;20159;-60
2021/01/27 01:12:59;;;;;;;13.82;9.68;;;;;;;;;;4191755;34;20102;-60
2021/01/27 01:15:26;;;;;;;18.87;9.27;;;;;;;;;;4191302;34;20141;-60
2021/01/27 01:17:52;;;;;;;15.38;9.23;;;;;;;;;;4191744;34;20178;-60
2021/01/27 01:20:18;;;;;;;17.52;10.25;;;;;;;;;;4191233;34;20222;-59
2021/01/27 01:22:53;;;;;;;18.73;9.73;;;;;;;;;;4191707;34;20178;-60
2021/01/27 01:25:20;;;;;;;18.83;10.17;;;;;;;;;;4191487;34;20243;-59
2021/01/27 01:27:46;;;;;;;13.75;9.20;;;;;;;;;;4191439;34;20141;-59
2021/01/27 01:30:17;;;;;;;17.40;9.90;;;;;;;;;;4191314;34;20647;-58
2021/01/27 01:32:43;;;;;;;22.33;9.75;;;;;;;;;;4191423;34;20275;-60
2021/01/27 01:35:11;;;;;;;26.85;10.18;;;;;;;;;;4191235;34;20126;-60
2021/01/27 01:37:38;;;;;;;21.95;9.32;;;;;;;;;;4191527;34;20142;-60
2021/01/27 01:40:08;;;;;;;20.58;9.10;;;;;;;;;;4196459;34;20093;-61
2021/01/27 01:42:33;;;;;;;33.50;10.93;;;;;;;;;;4205047;34;20117;-59
2021/01/27 01:44:59;;;;;;;23.83;9.43;;;;;;;;;;4204905;34;20546;-60
2021/01/27 01:47:26;;;;;;;21.70;9.20;;;;;;;;;;4205194;34;20117;-59
2021/01/27 01:49:53;;;;;;;21.48;9.57;;;;;;;;;;4192029;34;20129;-60
2021/01/27 01:52:19;;;;;;;20.65;8.90;;;;;;;;;;4204858;34;20524;-60
2021/01/27 01:54:47;;;;;;;17.55;8.95;;;;;;;;;;4191988;34;20133;-60
2021/01/27 01:57:21;;;;;;;24.75;8.80;;;;;;;;;;4180840;34;20214;-60
2021/01/27 01:59:54;;;;;;;18.85;8.10;;;;;;;;;;4180670;34;20138;-60
2021/01/27 02:02:20;;;;;;;26.58;9.85;;;;;;;;;;4181544;34;20129;-60
2021/01/27 02:04:53;;;;;;;25.35;7.72;;;;;;;;;;4180496;34;20130;-60
2021/01/27 02:07:20;;;;;;;22.87;7.90;;;;;;;;;;4192395;34;20109;-60
2021/01/27 02:09:47;;;;;;;15.95;7.10;;;;;;;;;;4191898;34;20118;-61
2021/01/27 02:12:18;;;;;;;18.77;7.70;;;;;;;;;;4204737;34;20521;-60
2021/01/27 02:15:22;;;;;;;18.87;7.65;;;;;;;;;;4196179;34;20126;-60
2021/01/27 02:18:00;;;;;;;13.05;7.07;;;;;;;;;;4191060;34;20180;-60
2021/01/27 02:20:57;;;;;;;15.70;7.95;;;;;;;;;;4191088;34;20458;-60
2021/01/27 02:23:50;;;;;;;15.65;6.65;;;;;;;;;;4190831;34;20508;-60
2021/01/27 02:27:00;;;;;;;12.60;7.22;;;;;;;;;;4191243;34;20214;-60
2021/01/27 02:29:35;;;;;;;13.60;6.95;;;;;;;;;;4189110;34;20102;-60
2021/01/27 02:32:17;;;;;;;17.23;13.07;;;;;;;;;;4190862;34;20474;-59
2021/01/27 02:34:58;;;;;;;13.35;6.68;;;;;;;;;;4190858;34;20118;-59
2021/01/27 02:37:28;;;;;;;14.13;6.95;;;;;;;;;;4178326;34;20214;-59
2021/01/27 02:39:58;;;;;;;15.88;10.00;;;;;;;;;;4170873;34;20197;-59
2021/01/27 02:42:29;;;;;;;16.73;7.00;;;;;;;;;;4180861;34;20137;-60
2021/01/27 02:45:18;;;;;;;14.48;8.02;;;;;;;;;;4180416;34;20105;-59
2021/01/27 02:47:48;;;;;;;20.83;7.62;;;;;;;;;;4197069;34;20106;-59
2021/01/27 02:50:22;;;;;;;14.75;7.72;;;;;;;;;;4204335;34;20606;-58
2021/01/27 02:52:55;;;;;;;17.35;7.55;;;;;;;;;;4180631;34;20106;-59
2021/01/27 02:55:29;;;;;;;24.10;8.32;;;;;;;;;;4191500;34;20110;-59
2021/01/27 02:58:02;;;;;;;22.42;7.93;;;;;;;;;;4180735;34;20120;-59
2021/01/27 03:00:31;;;;;;;23.42;8.00;;;;;;;;;;4191629;34;20109;-59
2021/01/27 03:03:01;;;;;;;19.20;8.00;;;;;;;;;;4180291;34;20526;-60
2021/01/27 03:05:35;;;;;;;17.12;6.87;;;;;;;;;;4180259;34;20102;-60
2021/01/27 03:08:04;;;;;;;20.50;7.95;;;;;;;;;;4191536;34;20105;-60
2021/01/27 03:10:36;;;;;;;18.98;8.25;;;;;;;;;;4191263;34;20197;-62
2021/01/27 03:13:02;;;;;;;21.70;9.07;;;;;;;;;;4180594;34;20146;-63
2021/01/27 03:15:28;;;;;;;26.80;8.38;;;;;;;;;;4204011;34;20221;-63
2021/01/27 03:17:58;;;;;;;23.98;9.93;;;;;;;;;;4204250;34;20212;-62
2021/01/27 03:20:31;;;;;;;21.70;8.80;;;;;;;;;;4203960;34;20535;-63
2021/01/27 03:23:06;;;;;;;27.85;7.95;;;;;;;;;;4180368;34;20124;-63
2021/01/27 03:25:33;;;;;;;25.67;8.25;;;;;;;;;;4191965;34;20116;-61
2021/01/27 03:28:35;;;;;;;27.83;9.05;;;;;;;;;;4204062;34;20226;-61
2021/01/27 03:31:01;;;;;;;28.75;9.52;;;;;;;;;;4164345;34;20198;-61
2021/01/27 03:33:32;;;;;;;24.10;7.90;;;;;;;;;;4204450;34;20102;-63
2021/01/27 03:36:03;;;;;;;21.10;7.50;;;;;;;;;;4181956;34;20212;-60
2021/01/27 03:38:34;;;;;;;24.80;8.43;;;;;;;;;;4182258;34;20102;-61
2021/01/27 03:41:19;;;;;;;26.12;8.27;;;;;;;;;;4181984;34;20201;-60
2021/01/27 03:43:56;;;;;;;38.45;7.87;;;;;;;;;;4206284;34;20131;-60
2021/01/27 03:46:31;;;;;;;22.45;7.93;;;;;;;;;;4205890;34;20517;-60
2021/01/27 03:48:59;;;;;;;28.80;8.85;;;;;;;;;;4206008;34;20126;-59
2021/01/27 03:51:27;;;;;;;27.27;8.07;;;;;;;;;;4193124;34;20113;-62
2021/01/27 03:53:53;;;;;;;19.23;7.93;;;;;;;;;;4181982;34;20140;-63
2021/01/27 03:56:47;;;;;;;26.55;7.70;;;;;;;;;;4193083;34;20541;-62
2021/01/27 03:59:13;;;;;;;22.87;7.47;;;;;;;;;;4187461;34;20201;-62
2021/01/27 04:01:52;;;;;;;21.27;7.78;;;;;;;;;;4192921;34;20121;-63
2021/01/27 04:04:19;;;;;;;16.60;7.30;;;;;;;;;;4205986;34;20141;-61
2021/01/27 04:06:45;;;;;;;24.45;7.35;;;;;;;;;;4205907;34;20197;-62
2021/01/27 04:09:11;;;;;;;28.62;7.25;;;;;;;;;;4205808;34;20125;-59
2021/01/27 04:11:37;;;;;;;17.42;7.40;;;;;;;;;;4205904;34;21242;-60
2021/01/27 04:14:04;;;;;;;17.73;7.68;;;;;;;;;;4205905;34;20130;-62
2021/01/27 04:16:30;;;;;;;15.30;6.72;;;;;;;;;;4205638;34;20216;-62
2021/01/27 04:18:57;;;;;;;19.65;7.45;;;;;;;;;;4192994;34;20177;-59
2021/01/27 04:21:23;;;;;;;14.35;6.97;;;;;;;;;;4192888;34;20230;-62
2021/01/27 04:23:48;;;;;;;20.20;7.07;;;;;;;;;;4205737;34;20145;-61
2021/01/27 04:26:14;;;;;;;15.35;7.25;;;;;;;;;;4204181;34;20102;-61
2021/01/27 04:28:40;;;;;;;13.43;7.78;;;;;;;;;;4189865;34;20182;-61
2021/01/27 04:31:06;;;;;;;22.90;9.38;;;;;;;;;;4191502;34;20121;-62
2021/01/27 04:33:32;;;;;;;20.30;8.85;;;;;;;;;;4191580;34;20091;-62
2021/01/27 04:35:58;;;;;;;16.30;6.72;;;;;;;;;;4191800;34;20130;-64
2021/01/27 04:38:24;;;;;;;15.45;7.07;;;;;;;;;;4191606;34;20116;-62
2021/01/27 04:40:55;;;;;;;13.32;7.37;;;;;;;;;;4201347;34;20132;-62
2021/01/27 04:43:42;;;;;;;20.77;9.00;;;;;;;;;;4189666;34;20110;-61
2021/01/27 04:46:26;;;;;;;13.50;6.95;;;;;;;;;;4190827;34;20679;-62
2021/01/27 04:49:21;;;;;;;23.48;7.65;;;;;;;;;;4190354;34;20113;-62
2021/01/27 04:51:51;;;;;;;20.75;8.02;;;;;;;;;;4179251;34;20120;-61
2021/01/27 04:54:29;;;;;;;17.80;7.53;;;;;;;;;;4178468;34;20103;-64
2021/01/27 04:57:12;;;;;;;19.17;8.30;;;;;;;;;;4191242;34;20537;-64
2021/01/27 05:00:09;;;;;;;14.73;8.27;;;;;;;;;;4191514;34;20219;-64
2021/01/27 05:02:58;;;;;;;13.23;7.82;;;;;;;;;;4178597;34;20105;-64
2021/01/27 05:05:30;;;;;;;17.77;8.38;;;;;;;;;;4179479;34;20130;-62
2021/01/27 05:07:59;;;;;;;17.10;8.40;;;;;;;;;;4189882;34;20130;-62
2021/01/27 05:10:35;;;;;;;15.38;8.30;;;;;;;;;;4191113;34;20530;-62
2021/01/27 05:13:04;;;;;;;14.65;7.03;;;;;;;;;;4189846;34;20113;-62
2021/01/27 05:15:30;;;;;;;11.38;6.12;;;;;;;;;;4191560;34;20522;-61
2021/01/27 05:17:56;;;;;;;15.13;7.45;;;;;;;;;;4189551;34;20107;-61
2021/01/27 05:20:22;;;;;;;10.60;7.00;;;;;;;;;;4189810;34;20541;-60
2021/01/27 05:22:48;;;;;;;13.40;6.68;;;;;;;;;;4191188;34;20090;-60
2021/01/27 05:25:39;;;;;;;15.82;6.03;;;;;;;;;;4191345;34;20524;-61
2021/01/27 05:28:13;;;;;;;21.20;6.75;;;;;;;;;;4178768;34;20117;-61
2021/01/27 05:31:05;;;;;;;14.95;5.40;;;;;;;;;;4179318;34;20102;-61
2021/01/27 05:33:43;;;;;;;11.80;5.68;;;;;;;;;;4190335;34;20109;-61
2021/01/27 05:36:11;;;;;;;13.32;6.55;;;;;;;;;;4190964;34;20113;-60
2021/01/27 05:38:37;;;;;;;10.88;5.05;;;;;;;;;;4164568;34;20190;-59
2021/01/27 05:41:26;;;;;;;18.87;5.72;;;;;;;;;;4185898;34;20117;-61
2021/01/27 05:43:54;;;;;;;8.40;5.32;;;;;;;;;;4191124;34;20121;-62
2021/01/27 05:46:26;;;;;;;15.90;4.68;;;;;;;;;;4178200;34;20110;-61
2021/01/27 05:48:52;;;;;;;6.80;5.00;;;;;;;;;;4191133;34;20122;-62
2021/01/27 05:51:30;;;;;;;11.68;4.78;;;;;;;;;;4189788;34;20142;-63
2021/01/27 05:53:56;;;;;;;9.38;4.82;;;;;;;;;;4177751;34;20162;-62
2021/01/27 05:56:26;;;;;;;11.23;4.90;;;;;;;;;;4177619;34;20126;-62
2021/01/27 05:58:57;;;;;;;8.55;5.12;;;;;;;;;;4189627;34;20126;-62
2021/01/27 06:01:38;;;;;;;10.35;5.12;;;;;;;;;;4190931;34;20144;-62
2021/01/27 06:04:14;;;;;;;10.38;5.00;;;;;;;;;;4178560;34;20460;-62
2021/01/27 06:06:40;;;;;;;8.93;4.20;;;;;;;;;;4202580;34;20132;-62
2021/01/27 06:09:07;;;;;;;12.45;4.85;;;;;;;;;;4204284;34;20113;-62
2021/01/27 06:11:33;;;;;;;7.40;4.50;;;;;;;;;;4180348;34;20125;-62
2021/01/27 06:14:18;;;;;;;8.13;4.25;;;;;;;;;;4204705;34;20092;-63
2021/01/27 06:16:45;;;;;;;7.78;4.10;;;;;;;;;;4204426;34;20117;-61
2021/01/27 06:19:25;;;;;;;8.68;4.30;;;;;;;;;;4191473;34;20190;-61
2021/01/27 06:22:15;;;;;;;8.60;4.00;;;;;;;;;;4204343;34;20135;-60
2021/01/27 06:25:03;;;;;;;7.97;4.37;;;;;;;;;;4180866;34;20106;-62
2021/01/27 06:27:49;;;;;;;12.10;4.45;;;;;;;;;;4204173;34;20522;-61
2021/01/27 06:30:40;;;;;;;11.57;4.72;;;;;;;;;;4204176;34;20540;-62
2021/01/27 06:33:13;;;;;;;8.02;3.85;;;;;;;;;;4191946;34;20199;-62
2021/01/27 06:36:05;;;;;;;10.38;4.12;;;;;;;;;;4204558;34;20442;-62
2021/01/27 06:38:36;;;;;;;8.20;4.05;;;;;;;;;;4191186;34;20147;-60
2021/01/27 06:41:23;;;;;;;8.70;4.37;;;;;;;;;;4191355;34;20206;-64
2021/01/27 06:44:23;;;;;;;10.13;3.58;;;;;;;;;;4175492;34;20098;-62
2021/01/27 06:46:51;;;;;;;12.52;4.55;;;;;;;;;;4181315;34;20172;-62
2021/01/27 06:49:27;;;;;;;11.25;5.03;;;;;;;;;;4191159;34;20117;-62
2021/01/27 06:52:02;;;;;;;10.35;4.57;;;;;;;;;;4188370;34;20102;-62
2021/01/27 06:54:28;;;;;;;8.93;4.32;;;;;;;;;;4177150;34;20110;-62
2021/01/27 06:57:12;;;;;;;13.02;5.32;;;;;;;;;;4194511;34;20496;-62
2021/01/27 07:00:02;;;;;;;10.75;4.22;;;;;;;;;;4191700;34;20205;-63
2021/01/27 07:02:55;;;;;;;12.57;4.20;;;;;;;;;;4204179;34;20114;-62
2021/01/27 07:05:38;;;;;;;12.30;4.78;;;;;;;;;;4191056;34;20197;-62
2021/01/27 07:08:14;;;;;;;12.45;4.82;;;;;;;;;;4192951;34;20120;-62
2021/01/27 07:11:01;;;;;;;13.23;4.65;;;;;;;;;;4193188;34;20102;-62
2021/01/27 07:13:46;;;;;;;10.70;4.43;;;;;;;;;;4205719;34;20113;-62
2021/01/27 07:16:35;;;;;;;14.27;5.20;;;;;;;;;;4205946;34;20125;-61
2021/01/27 07:19:05;;;;;;;13.65;5.62;;;;;;;;;;4192533;34;20152;-61
2021/01/27 07:21:41;;;;;;;18.37;4.70;;;;;;;;;;4181299;34;20529;-61
2021/01/27 07:24:37;;;;;;;15.00;4.90;;;;;;;;;;4206081;34;20515;-61
2021/01/27 07:27:07;;;;;;;15.40;5.28;;;;;;;;;;4195156;34;20198;-61
2021/01/27 07:29:45;;;;;;;14.75;4.85;;;;;;;;;;4192857;34;20175;-61
2021/01/27 07:32:33;;;;;;;10.23;4.50;;;;;;;;;;4193312;34;20177;-61
2021/01/27 07:35:03;;;;;;;13.57;4.43;;;;;;;;;;4182923;34;20117;-61
2021/01/27 07:37:29;;;;;;;19.25;4.97;;;;;;;;;;4193335;34;20113;-61
2021/01/27 07:40:25;;;;;;;20.30;5.15;;;;;;;;;;4205608;34;20109;-61
2021/01/27 07:42:57;;;;;;;13.45;4.78;;;;;;;;;;4193038;34;20188;-61
2021/01/27 07:45:35;;;;;;;16.52;4.35;;;;;;;;;;4205492;34;20569;-62
2021/01/27 07:48:22;;;;;;;13.20;4.95;;;;;;;;;;4194337;34;20125;-62
2021/01/27 07:50:50;;;;;;;14.90;6.00;;;;;;;;;;4194482;34;20101;-62
2021/01/27 07:53:21;;;;;;;16.27;4.40;;;;;;;;;;4181301;34;20106;-62
2021/01/27 07:55:59;;;;;;;15.73;6.05;;;;;;;;;;4179447;34;20542;-60
2021/01/27 07:58:28;;;;;;;15.80;5.03;;;;;;;;;;4179697;34;20110;-61
2021/01/27 08:00:59;;;;;;;17.08;4.37;;;;;;;;;;4191744;34;20137;-61
2021/01/27 08:03:36;;;;;;;22.95;5.00;;;;;;;;;;4180643;34;20113;-60
2021/01/27 08:06:28;;;;;;;14.52;4.45;;;;;;;;;;4195587;34;20220;-62
2021/01/27 08:08:59;;;;;;;18.90;4.90;;;;;;;;;;4184967;34;20117;-60
2021/01/27 08:11:33;;;;;;;9.95;4.70;;;;;;;;;;4167910;34;20549;-61
2021/01/27 08:13:59;;;;;;;17.80;5.32;;;;;;;;;;4193145;34;20102;-61
2021/01/27 08:16:37;;;;;;;16.85;5.65;;;;;;;;;;4181468;34;20128;-61
2021/01/27 08:19:12;;;;;;;18.60;5.07;;;;;;;;;;4181616;34;20137;-62
2021/01/27 08:22:00;;;;;;;12.82;4.80;;;;;;;;;;4205193;34;20485;-62
2021/01/27 08:24:35;;;;;;;16.33;4.72;;;;;;;;;;4193057;34;20097;-62
2021/01/27 08:27:10;;;;;;;13.45;5.25;;;;;;;;;;4205311;34;20479;-62
2021/01/27 08:30:04;;;;;;;23.17;6.07;;;;;;;;;;4205428;34;20104;-62
2021/01/27 08:32:34;;;;;;;19.08;4.97;;;;;;;;;;4205539;34;20108;-63
2021/01/27 08:35:07;;;;;;;17.62;4.50;;;;;;;;;;4181348;34;20165;-62
2021/01/27 08:37:34;;;;;;;14.20;4.60;;;;;;;;;;4205400;34;20531;-62
2021/01/27 08:40:20;;;;;;;12.88;4.75;;;;;;;;;;4205215;34;20110;-62
2021/01/27 08:42:51;;;;;;;20.20;5.80;;;;;;;;;;4205379;34;20122;-62
2021/01/27 08:45:21;;;;;;;11.75;4.12;;;;;;;;;;4181522;34;20106;-63
2021/01/27 08:47:48;;;;;;;15.10;5.03;;;;;;;;;;4192732;34;20102;-62
2021/01/27 08:50:36;;;;;;;10.90;4.45;;;;;;;;;;4205082;34;20118;-62
2021/01/27 08:53:11;;;;;;;12.80;4.28;;;;;;;;;;4195117;34;20128;-62
2021/01/27 08:55:45;;;;;;;13.10;5.05;;;;;;;;;;4191417;34;20118;-62
2021/01/27 08:58:38;;;;;;;11.00;5.10;;;;;;;;;;4203044;34;20118;-60
2021/01/27 09:01:23;;;;;;;18.48;5.07;;;;;;;;;;4182042;34;20236;-62
2021/01/27 09:03:52;;;;;;;12.93;5.00;;;;;;;;;;4205348;34;20487;-62
2021/01/27 09:06:21;;;;;;;12.18;4.85;;;;;;;;;;4204757;34;20125;-62
2021/01/27 09:08:47;;;;;;;14.57;4.15;;;;;;;;;;4205185;34;20209;-61
2021/01/27 09:11:18;;;;;;;14.57;4.78;;;;;;;;;;4192252;34;20153;-62
2021/01/27 09:13:45;;;;;;;11.35;4.00;;;;;;;;;;4191153;34;20128;-63
2021/01/27 09:16:21;;;;;;;18.12;4.75;;;;;;;;;;4189712;34;20118;-59
2021/01/27 09:18:55;;;;;;;13.60;4.30;;;;;;;;;;4178572;34;20110;-60
2021/01/27 09:21:21;;;;;;;10.50;4.47;;;;;;;;;;4164612;34;20118;-59
2021/01/27 09:23:54;;;;;;;11.25;4.72;;;;;;;;;;4165015;34;20201;-58
2021/01/27 09:26:46;;;;;;;14.57;5.80;;;;;;;;;;4178838;34;20237;-62
2021/01/27 09:29:26;;;;;;;19.60;6.00;;;;;;;;;;4179339;34;20588;-61
2021/01/27 09:31:52;;;;;;;13.13;5.22;;;;;;;;;;4190602;34;20544;-65
2021/01/27 09:34:27;;;;;;;9.40;3.83;;;;;;;;;;4189532;34;20096;-64
2021/01/27 09:37:04;;;;;;;14.43;3.95;;;;;;;;;;4191449;34;20185;-67
2021/01/27 09:39:32;;;;;;;12.00;3.85;;;;;;;;;;4168594;34;20101;-66
2021/01/27 09:42:00;;;;;;;9.35;4.50;;;;;;;;;;4187604;34;20132;-64
2021/01/27 09:44:33;;;;;;;8.63;5.72;;;;;;;;;;4177410;34;20113;-64
2021/01/27 09:47:13;;;;;;;9.25;5.70;;;;;;;;;;4190328;34;20481;-64
2021/01/27 09:49:48;;;;;;;9.23;6.15;;;;;;;;;;4178150;34;20613;-63
2021/01/27 09:52:13;;;;;;;11.32;5.50;;;;;;;;;;4178664;34;20209;-63
2021/01/27 09:54:44;;;;;;;7.53;6.25;;;;;;;;;;4190223;34;20494;-63
2021/01/27 09:57:11;;;;;;;8.25;4.78;;;;;;;;;;4178064;34;20098;-65
2021/01/27 09:59:37;;;;;;;8.50;4.50;;;;;;;;;;4168362;34;20499;-63
2021/01/27 10:02:03;;;;;;;6.95;4.70;;;;;;;;;;4191121;34;20983;-60
2021/01/27 10:04:32;;;;;;;7.40;4.72;;;;;;;;;;4190674;34;20554;-61
2021/01/27 10:07:12;;;;;;;10.13;5.93;;;;;;;;;;4204535;34;20197;-61
2021/01/27 10:09:45;;;;;;;9.77;5.20;;;;;;;;;;4191592;34;20142;-62
2021/01/27 10:12:22;;;;;;;9.43;4.00;;;;;;;;;;4192238;34;20650;-63
2021/01/27 10:14:48;;;;;;;5.18;3.80;;;;;;;;;;4191504;34;20147;-63
2021/01/27 10:17:15;;;;;;;8.57;3.60;;;;;;;;;;4204672;34;20301;-60
2021/01/27 10:19:50;;;;;;;6.93;4.03;;;;;;;;;;4191530;34;20162;-63
2021/01/27 10:22:30;;;;;;;7.18;3.90;;;;;;;;;;4191746;34;20190;-62
2021/01/27 10:25:00;;;;;;;6.20;4.15;;;;;;;;;;4174371;34;20102;-64
2021/01/27 10:27:36;;;;;;;8.38;4.47;;;;;;;;;;4190728;34;20206;-63
2021/01/27 10:30:14;;;;;;;8.38;3.92;;;;;;;;;;4196925;34;20535;-63
2021/01/27 10:32:41;;;;;;;6.07;3.65;;;;;;;;;;4204395;34;20542;-62
2021/01/27 10:35:31;;;;;;;13.30;5.30;;;;;;;;;;4196777;34;20102;-63
2021/01/27 10:38:08;;;;;;;11.63;4.18;;;;;;;;;;4186701;34;20093;-62
2021/01/27 10:40:35;;;;;;;12.13;5.72;;;;;;;;;;4193869;34;20406;-63
2021/01/27 10:43:24;;;;;;;12.37;7.12;;;;;;;;;;4189873;34;20209;-62
2021/01/27 10:45:50;;;;;;;15.30;8.60;;;;;;;;;;4199573;34;20106;-64
2021/01/27 10:48:27;;;;;;;13.57;8.70;;;;;;;;;;4204143;34;20190;-62
2021/01/27 10:50:59;;;;;;;16.67;9.13;;;;;;;;;;4203975;34;20118;-61
2021/01/27 10:53:25;;;;;;;16.77;10.63;;;;;;;;;;4191656;34;20554;-62
2021/01/27 10:55:55;;;;;;;12.98;8.98;;;;;;;;;;4194029;34;20126;-64
2021/01/27 10:58:21;;;;;;;10.73;6.55;;;;;;;;;;4190134;34;20106;-62
2021/01/27 11:00:47;;;;;;;12.27;8.30;;;;;;;;;;4198980;34;20164;-63
2021/01/27 11:03:13;;;;;;;9.98;5.90;;;;;;;;;;4190582;34;20206;-64
2021/01/27 11:05:40;;;;;;;10.82;5.45;;;;;;;;;;4202299;34;20137;-60
2021/01/27 11:08:06;;;;;;;6.25;4.85;;;;;;;;;;4202415;34;20130;-64
2021/01/27 11:10:32;;;;;;;5.70;4.87;;;;;;;;;;4189306;34;20570;-64
2021/01/27 11:12:58;;;;;;;7.30;5.12;;;;;;;;;;4189798;34;20121;-62
2021/01/27 11:15:24;;;;;;;9.55;5.12;;;;;;;;;;4202433;34;20130;-64
2021/01/27 11:17:51;;;;;;;11.80;6.07;;;;;;;;;;4202956;34;20148;-64
2021/01/27 11:20:22;;;;;;;7.07;5.20;;;;;;;;;;4204104;34;20480;-63
2021/01/27 11:22:52;;;;;;;4.90;4.40;;;;;;;;;;4204026;34;20179;-67
2021/01/27 11:25:23;;;;;;;7.00;4.45;;;;;;;;;;4190889;34;20114;-64
2021/01/27 11:27:50;;;;;;;4.93;4.37;;;;;;;;;;4203959;34;20513;-63
2021/01/27 11:30:18;;;;;;;5.68;4.78;;;;;;;;;;4203890;34;20114;-63
2021/01/27 11:32:43;;;;;;;7.82;5.68;;;;;;;;;;4203873;34;20149;-64
2021/01/27 11:35:10;;;;;;;5.72;4.87;;;;;;;;;;4203714;34;20161;-65
2021/01/27 11:37:36;;;;;;;7.35;4.82;;;;;;;;;;4191220;34;20188;-65
2021/01/27 11:40:04;;;;;;;5.93;4.40;;;;;;;;;;4203717;34;20149;-63
2021/01/27 11:42:30;;;;;;;5.82;4.45;;;;;;;;;;4203925;34;20114;-64
2021/01/27 11:44:55;;;;;;;10.75;4.85;;;;;;;;;;4203688;34;20466;-64
2021/01/27 11:47:21;;;;;;;8.23;5.82;;;;;;;;;;4203982;34;20114;-62
2021/01/27 11:49:49;;;;;;;11.25;4.62;;;;;;;;;;4203941;34;20141;-62
2021/01/27 11:52:16;;;;;;;7.28;5.32;;;;;;;;;;4191169;34;20121;-63
2021/01/27 11:54:42;;;;;;;5.68;5.00;;;;;;;;;;4204382;34;20197;-64
2021/01/27 11:57:08;;;;;;;8.30;4.87;;;;;;;;;;4206060;34;20447;-64
2021/01/27 11:59:34;;;;;;;11.00;5.12;;;;;;;;;;4205773;34;20110;-64
2021/01/27 12:02:01;;;;;;;6.72;5.53;;;;;;;;;;4206034;34;20192;-64
2021/01/27 12:04:27;;;;;;;9.48;6.57;;;;;;;;;;4193090;34;20133;-63
2021/01/27 12:06:53;;;;;;;9.75;6.78;;;;;;;;;;4206000;34;20461;-58
2021/01/27 12:09:19;;;;;;;11.75;7.82;;;;;;;;;;4205823;34;20208;-61
2021/01/27 12:11:45;;;;;;;10.68;8.60;;;;;;;;;;4205726;34;20209;-62
2021/01/27 12:14:10;;;;;;;16.40;12.23;;;;;;;;;;4205753;34;20149;-62
2021/01/27 12:16:36;;;;;;;13.77;11.85;;;;;;;;;;4205678;34;20133;-62
2021/01/27 12:19:02;;;;;;;15.82;10.38;;;;;;;;;;4205756;34;20492;-62
2021/01/27 12:21:28;;;;;;;10.32;8.25;;;;;;;;;;4205585;34;20106;-63
2021/01/27 12:23:54;;;;;;;9.23;6.85;;;;;;;;;;4206010;34;20102;-63
2021/01/27 12:26:20;;;;;;;7.12;6.18;;;;;;;;;;4205902;34;20137;-61
2021/01/27 12:28:46;;;;;;;6.93;6.22;;;;;;;;;;4205996;34;20101;-62
2021/01/27 12:31:12;;;;;;;10.25;7.65;;;;;;;;;;4205530;34;20117;-62
2021/01/27 12:33:39;;;;;;;7.82;6.47;;;;;;;;;;4205781;34;20133;-61
2021/01/27 12:36:05;;;;;;;11.82;8.00;;;;;;;;;;4205540;34;20522;-63
2021/01/27 12:38:32;;;;;;;11.45;6.53;;;;;;;;;;4205726;34;20193;-61
2021/01/27 12:40:58;;;;;;;12.77;8.73;;;;;;;;;;4192677;34;20122;-62
2021/01/27 12:43:24;;;;;;;10.27;8.32;;;;;;;;;;4205546;34;20114;-61
2021/01/27 12:45:49;;;;;;;8.65;7.75;;;;;;;;;;4192590;34;20686;-61
2021/01/27 12:48:15;;;;;;;14.18;9.00;;;;;;;;;;4205505;34;20541;-61
2021/01/27 12:50:41;;;;;;;12.77;9.15;;;;;;;;;;4205513;34;20538;-61
2021/01/27 12:53:07;;;;;;;9.57;6.55;;;;;;;;;;4205501;34;20142;-61
2021/01/27 12:55:33;;;;;;;10.95;6.82;;;;;;;;;;4205353;34;20137;-61
2021/01/27 12:58:00;;;;;;;8.32;6.80;;;;;;;;;;4205398;34;20125;-60
2021/01/27 13:00:27;;;;;;;8.75;7.12;;;;;;;;;;4205246;34;20176;-61
2021/01/27 13:02:53;;;;;;;7.47;6.35;;;;;;;;;;4192548;34;20105;-61
2021/01/27 13:05:20;;;;;;;9.10;6.75;;;;;;;;;;4192691;34;20110;-62
2021/01/27 13:07:46;;;;;;;8.70;7.80;;;;;;;;;;4204647;34;20526;-58
2021/01/27 13:10:12;;;;;;;10.10;6.65;;;;;;;;;;4205311;34;20106;-64
2021/01/27 13:12:39;;;;;;;10.15;6.40;;;;;;;;;;4192504;34;20129;-64
2021/01/27 13:15:09;;;;;;;7.25;5.75;;;;;;;;;;4205588;34;20224;-61
2021/01/27 13:17:35;;;;;;;8.18;5.00;;;;;;;;;;4192734;34;20126;-63
2021/01/27 13:20:01;;;;;;;9.07;6.65;;;;;;;;;;4205266;34;20132;-62
2021/01/27 13:22:27;;;;;;;10.07;7.35;;;;;;;;;;4205223;34;20118;-62
2021/01/27 13:24:53;;;;;;;16.05;11.65;;;;;;;;;;4205241;34;20121;-63
2021/01/27 13:27:19;;;;;;;11.75;7.72;;;;;;;;;;4205536;34;20833;-59
2021/01/27 13:29:44;;;;;;;9.40;6.22;;;;;;;;;;4205211;34;20129;-59
2021/01/27 13:32:10;;;;;;;10.02;7.25;;;;;;;;;;4205392;34;20121;-60
2021/01/27 13:34:36;;;;;;;6.80;6.10;;;;;;;;;;4205082;34;20231;-60
2021/01/27 13:37:02;;;;;;;9.48;6.28;;;;;;;;;;4205194;34;20290;-61
2021/01/27 13:39:28;;;;;;;8.93;5.72;;;;;;;;;;4205015;34;20152;-60
2021/01/27 13:41:54;;;;;;;10.55;5.70;;;;;;;;;;4205184;34;20115;-59
2021/01/27 13:44:20;;;;;;;10.75;6.43;;;;;;;;;;4204973;34;20502;-60
2021/01/27 13:46:45;;;;;;;13.55;5.60;;;;;;;;;;4204994;34;20192;-60
2021/01/27 13:49:11;;;;;;;9.45;5.53;;;;;;;;;;4205270;34;20144;-60
2021/01/27 13:51:37;;;;;;;7.80;5.47;;;;;;;;;;4204894;34;20200;-62
2021/01/27 13:54:03;;;;;;;7.97;5.53;;;;;;;;;;4204945;34;20133;-62
2021/01/27 13:56:29;;;;;;;9.00;5.82;;;;;;;;;;4205065;34;20129;-64
2021/01/27 13:59:21;;;;;;;7.45;5.90;;;;;;;;;;4204826;34;20103;-63
2021/01/27 14:01:47;;;;;;;8.27;5.70;;;;;;;;;;4203357;34;20193;-61
2021/01/27 14:04:13;;;;;;;9.50;5.37;;;;;;;;;;4204892;34;20123;-62
2021/01/27 14:06:39;;;;;;;7.15;5.65;;;;;;;;;;4204770;34;20166;-61
2021/01/27 14:09:05;;;;;;;7.47;5.50;;;;;;;;;;4204874;34;20094;-62
2021/01/27 14:11:31;;;;;;;6.82;5.28;;;;;;;;;;4204551;34;20157;-61
2021/01/27 14:13:57;;;;;;;7.03;6.30;;;;;;;;;;4204824;34;20098;-62
2021/01/27 14:16:23;;;;;;;10.52;6.35;;;;;;;;;;4204723;34;20120;-62
2021/01/27 14:18:50;;;;;;;5.78;5.18;;;;;;;;;;4204599;34;20129;-62
2021/01/27 14:21:17;;;;;;;8.68;5.95;;;;;;;;;;4204625;34;20172;-60
2021/01/27 14:23:44;;;;;;;8.25;5.65;;;;;;;;;;4204853;34;20144;-62
2021/01/27 14:26:11;;;;;;;5.85;5.15;;;;;;;;;;4191816;34;20181;-61
2021/01/27 14:28:37;;;;;;;9.50;5.10;;;;;;;;;;4204707;34;20094;-62
2021/01/27 14:31:03;;;;;;;8.00;5.12;;;;;;;;;;4204508;34;20101;-63
2021/01/27 14:33:29;;;;;;;12.55;8.77;;;;;;;;;;4193151;34;20505;-65
2021/01/27 14:35:55;;;;;;;10.27;5.20;;;;;;;;;;4190698;34;20202;-61
2021/01/27 14:38:21;;;;;;;9.82;5.30;;;;;;;;;;4178112;34;20204;-63
2021/01/27 14:40:47;;;;;;;13.80;5.47;;;;;;;;;;4190636;34;20086;-64
2021/01/27 14:43:13;;;;;;;9.10;4.85;;;;;;;;;;4190686;34;20118;-62
2021/01/27 14:45:39;;;;;;;7.78;5.82;;;;;;;;;;4190882;34;20132;-63
2021/01/27 14:48:07;;;;;;;9.20;6.03;;;;;;;;;;4177919;34;20121;-63
2021/01/27 14:50:33;;;;;;;7.37;6.00;;;;;;;;;;4190749;34;20133;-61
2021/01/27 14:52:59;;;;;;;8.98;5.45;;;;;;;;;;4190683;34;20110;-62
2021/01/27 14:55:25;;;;;;;9.50;6.82;;;;;;;;;;4190830;34;20138;-63
2021/01/27 14:57:51;;;;;;;8.60;5.60;;;;;;;;;;4190677;34;20602;-63
2021/01/27 15:00:17;;;;;;;5.82;5.05;;;;;;;;;;4190642;34;20156;-61
2021/01/27 15:02:43;;;;;;;8.85;5.22;;;;;;;;;;4190477;34;20609;-64